createdAt,value
2018-03-29T00:00:58.568Z,88.92
2018-03-29T00:01:58.579Z,88.73
2018-03-29T00:02:58.602Z,88.54
2018-03-29T00:03:58.616Z,88.35
2018-03-29T00:04:58.691Z,88.92
2018-03-29T00:05:58.653Z,88.92
2018-03-29T00:06:58.672Z,88.92
2018-03-29T00:07:58.690Z,88.64
2018-03-29T00:08:58.709Z,89.02
2018-03-29T00:09:58.727Z,88.45
2018-03-29T00:10:58.744Z,88.26
2018-03-29T00:11:58.765Z,88.45
2018-03-29T00:12:58.829Z,88.92
2018-03-29T00:13:58.798Z,87.78
2018-03-29T00:14:58.814Z,87.49
2018-03-29T00:15:58.834Z,87.35
2018-03-29T00:16:58.900Z,87.11
2018-03-29T00:17:58.871Z,87.59
2018-03-29T00:18:58.888Z,87.49
2018-03-29T00:19:58.902Z,87.59
2018-03-29T00:20:58.921Z,87.87
2018-03-29T00:21:58.943Z,87.64
2018-03-29T00:22:59.014Z,87.64
2018-03-29T00:23:58.976Z,87.26
2018-03-29T00:24:58.994Z,86.40
2018-03-29T00:25:59.013Z,86.54
2018-03-29T00:26:59.032Z,85.77
2018-03-29T00:27:59.047Z,85.30
2018-03-29T00:28:59.117Z,84.78
2018-03-29T00:29:59.081Z,84.16
2018-03-29T00:30:59.099Z,84.97
2018-03-29T00:31:59.128Z,85.06
2018-03-29T00:32:59.137Z,85.45
2018-03-29T00:33:59.153Z,85.16
2018-03-29T00:34:59.170Z,85.25
2018-03-29T00:35:59.186Z,85.06
2018-03-29T00:37:59.227Z,85.93
2018-03-29T00:38:59.253Z,85.93
2018-03-29T00:39:59.262Z,85.45
2018-03-29T00:40:59.327Z,85.45
2018-03-29T00:41:59.302Z,85.16
2018-03-29T00:42:59.322Z,85.64
2018-03-29T00:43:59.329Z,85.73
2018-03-29T00:44:59.345Z,85.54
2018-03-29T00:45:59.362Z,86.21
2018-03-29T00:46:59.439Z,86.40
2018-03-29T00:47:59.402Z,86.40
2018-03-29T00:48:59.427Z,86.49
2018-03-29T00:49:59.432Z,86.11
2018-03-29T00:50:59.463Z,86.21
2018-03-29T00:51:59.469Z,86.78
2018-03-29T00:52:59.541Z,86.69
2018-03-29T00:53:59.505Z,86.69
2018-03-29T00:54:59.540Z,87.26
2018-03-29T00:55:59.541Z,86.69
2018-03-29T00:56:59.561Z,87.64
2018-03-29T00:57:59.576Z,87.07
2018-03-29T00:58:59.591Z,87.07
2018-03-29T00:59:59.610Z,87.45
2018-03-29T01:00:59.629Z,87.35
2018-03-29T01:01:59.645Z,87.16
2018-03-29T01:02:59.661Z,87.64
2018-03-29T01:03:59.719Z,87.45
2018-03-29T01:04:59.750Z,87.45
2018-03-29T01:05:59.718Z,87.07
2018-03-29T01:06:59.732Z,87.83
2018-03-29T01:07:59.747Z,87.64
2018-03-29T01:08:59.765Z,87.45
2018-03-29T01:09:59.787Z,88.40
2018-03-29T01:10:59.804Z,88.31
2018-03-29T01:11:59.832Z,87.83
2018-03-29T01:12:59.837Z,88.36
2018-03-29T01:13:59.857Z,87.64
2018-03-29T01:14:59.882Z,87.93
2018-03-29T01:15:59.889Z,88.21
2018-03-29T01:16:59.938Z,88.07
2018-03-29T01:17:59.924Z,88.26
2018-03-29T01:18:59.942Z,87.98
2018-03-29T01:19:59.961Z,88.17
2018-03-29T01:20:59.985Z,88.07
2018-03-29T01:22:00.010Z,87.69
2018-03-29T01:23:00.067Z,87.21
2018-03-29T01:24:00.031Z,87.45
2018-03-29T01:25:00.050Z,87.45
2018-03-29T01:26:00.080Z,86.78
2018-03-29T01:27:00.096Z,87.12
2018-03-29T01:28:00.103Z,87.40
2018-03-29T01:29:00.119Z,87.02
2018-03-29T01:30:00.167Z,87.31
2018-03-29T01:31:00.152Z,87.21
2018-03-29T01:32:00.174Z,87.21
2018-03-29T01:33:00.197Z,87.50
2018-03-29T01:34:00.207Z,87.60
2018-03-29T01:35:00.278Z,87.21
2018-03-29T01:36:00.268Z,87.50
2018-03-29T01:37:00.269Z,87.26
2018-03-29T01:38:00.277Z,87.21
2018-03-29T01:39:00.296Z,86.88
2018-03-29T01:40:00.314Z,86.98
2018-03-29T01:41:00.381Z,86.40
2018-03-29T01:42:00.376Z,86.40
2018-03-29T01:43:00.367Z,86.30
2018-03-29T01:44:00.383Z,86.59
2018-03-29T01:45:00.402Z,86.11
2018-03-29T01:46:00.418Z,85.93
2018-03-29T01:47:00.448Z,85.45
2018-03-29T01:48:00.453Z,85.35
2018-03-29T01:49:00.472Z,85.45
2018-03-29T01:50:00.503Z,85.54
2018-03-29T01:51:00.505Z,85.93
2018-03-29T01:52:00.536Z,85.83
2018-03-29T01:53:00.607Z,86.11
2018-03-29T01:54:00.559Z,85.35
2018-03-29T01:55:00.584Z,86.02
2018-03-29T01:56:00.605Z,85.73
2018-03-29T01:57:00.614Z,85.83
2018-03-29T01:58:00.638Z,85.93
2018-03-29T01:59:00.652Z,85.83
2018-03-29T02:00:00.668Z,85.73
2018-03-29T02:01:00.789Z,86.30
2018-03-29T02:02:00.712Z,86.21
2018-03-29T02:03:00.726Z,86.59
2018-03-29T02:04:00.740Z,86.69
2018-03-29T02:05:00.756Z,86.59
2018-03-29T02:06:00.771Z,86.83
2018-03-29T02:07:00.791Z,87.02
2018-03-29T02:08:00.810Z,86.30
2018-03-29T02:09:00.833Z,86.49
2018-03-29T02:10:00.845Z,85.83
2018-03-29T02:11:00.863Z,85.73
2018-03-29T02:12:00.888Z,86.36
2018-03-29T02:13:00.908Z,85.97
2018-03-29T02:14:00.920Z,85.88
2018-03-29T02:15:00.932Z,86.16
2018-03-29T02:16:00.949Z,85.97
2018-03-29T02:17:00.979Z,85.69
2018-03-29T02:18:00.984Z,85.31
2018-03-29T02:19:01.015Z,85.60
2018-03-29T02:20:01.063Z,85.88
2018-03-29T02:21:01.042Z,85.60
2018-03-29T02:22:01.056Z,85.97
2018-03-29T02:23:01.075Z,84.74
2018-03-29T02:24:01.099Z,84.92
2018-03-29T02:25:01.108Z,84.64
2018-03-29T02:26:01.126Z,84.92
2018-03-29T02:27:01.155Z,84.36
2018-03-29T02:28:01.171Z,84.64
2018-03-29T02:29:01.231Z,83.97
2018-03-29T02:30:01.203Z,83.31
2018-03-29T02:31:01.219Z,83.02
2018-03-29T02:32:01.242Z,83.02
2018-03-29T02:33:01.278Z,83.50
2018-03-29T02:34:01.272Z,83.69
2018-03-29T02:35:01.338Z,84.07
2018-03-29T02:36:01.312Z,84.07
2018-03-29T02:37:01.318Z,83.50
2018-03-29T02:38:01.345Z,83.97
2018-03-29T02:39:01.358Z,83.97
2018-03-29T02:40:01.378Z,83.88
2018-03-29T02:41:01.400Z,83.40
2018-03-29T02:42:01.409Z,84.45
2018-03-29T02:43:01.436Z,84.45
2018-03-29T02:44:01.448Z,84.55
2018-03-29T02:45:01.463Z,83.69
2018-03-29T02:46:01.563Z,83.97
2018-03-29T02:47:01.496Z,83.59
2018-03-29T02:48:01.526Z,83.02
2018-03-29T02:49:01.538Z,82.68
2018-03-29T02:50:01.547Z,83.16
2018-03-29T02:51:01.577Z,83.69
2018-03-29T02:52:01.587Z,83.69
2018-03-29T02:53:01.658Z,83.02
2018-03-29T02:54:01.626Z,83.31
2018-03-29T02:55:01.637Z,82.68
2018-03-29T02:56:01.662Z,82.68
2018-03-29T02:57:01.667Z,82.87
2018-03-29T02:58:01.686Z,82.20
2018-03-29T02:59:01.841Z,82.49
2018-03-29T03:00:01.725Z,82.35
2018-03-29T03:01:01.740Z,82.35
2018-03-29T03:02:01.766Z,81.30
2018-03-29T03:03:01.778Z,82.11
2018-03-29T03:04:01.817Z,81.88
2018-03-29T03:05:01.925Z,81.88
2018-03-29T03:06:01.836Z,81.78
2018-03-29T03:07:01.870Z,81.68
2018-03-29T03:08:01.873Z,82.26
2018-03-29T03:09:01.889Z,82.07
2018-03-29T03:10:01.899Z,82.07
2018-03-29T03:11:01.975Z,81.88
2018-03-29T03:12:01.941Z,81.59
2018-03-29T03:13:01.951Z,82.35
2018-03-29T03:14:01.966Z,82.17
2018-03-29T03:15:01.988Z,82.54
2018-03-29T03:16:02.002Z,82.35
2018-03-29T03:17:02.029Z,80.54
2018-03-29T03:18:02.066Z,80.44
2018-03-29T03:19:02.061Z,81.02
2018-03-29T03:20:02.081Z,81.02
2018-03-29T03:21:02.096Z,80.44
2018-03-29T03:22:02.115Z,80.35
2018-03-29T03:23:02.172Z,80.69
2018-03-29T03:24:02.188Z,79.74
2018-03-29T03:25:02.163Z,80.35
2018-03-29T03:26:02.174Z,80.26
2018-03-29T03:27:02.201Z,80.44
2018-03-29T03:28:02.217Z,80.12
2018-03-29T03:29:02.280Z,80.26
2018-03-29T03:30:02.253Z,80.31
2018-03-29T03:31:02.263Z,80.22
2018-03-29T03:32:02.280Z,79.68
2018-03-29T03:33:02.305Z,79.74
2018-03-29T03:34:02.322Z,79.83
2018-03-29T03:35:02.342Z,79.36
2018-03-29T03:36:02.378Z,79.17
2018-03-29T03:37:02.390Z,78.98
2018-03-29T03:38:02.381Z,79.74
2018-03-29T03:39:02.401Z,79.55
2018-03-29T03:40:02.417Z,79.17
2018-03-29T03:41:02.435Z,78.69
2018-03-29T03:42:02.450Z,78.88
2018-03-29T03:43:02.508Z,78.50
2018-03-29T03:44:02.494Z,78.03
2018-03-29T03:45:02.502Z,77.83
2018-03-29T03:46:02.526Z,78.41
2018-03-29T03:47:02.536Z,78.03
2018-03-29T03:48:02.561Z,77.83
2018-03-29T03:49:02.581Z,77.55
2018-03-29T03:50:02.586Z,78.12
2018-03-29T03:51:02.616Z,77.93
2018-03-29T03:52:02.622Z,77.36
2018-03-29T03:53:02.643Z,76.59
2018-03-29T03:54:02.665Z,77.36
2018-03-29T03:55:02.685Z,77.26
2018-03-29T03:56:02.709Z,76.88
2018-03-29T03:57:02.705Z,76.88
2018-03-29T03:58:02.728Z,76.79
2018-03-29T03:59:02.749Z,76.88
2018-03-29T04:00:02.762Z,77.07
2018-03-29T04:01:02.775Z,77.17
2018-03-29T04:02:02.839Z,77.07
2018-03-29T04:03:02.815Z,77.07
2018-03-29T04:04:02.830Z,76.69
2018-03-29T04:05:02.846Z,76.50
2018-03-29T04:06:02.870Z,76.88
2018-03-29T04:07:02.882Z,76.98
2018-03-29T04:08:02.920Z,76.98
2018-03-29T04:09:02.923Z,76.88
2018-03-29T04:10:02.932Z,77.64
2018-03-29T04:11:02.956Z,77.07
2018-03-29T04:12:02.964Z,77.83
2018-03-29T04:13:02.992Z,77.93
2018-03-29T04:14:03.016Z,76.98
2018-03-29T04:15:03.017Z,77.36
2018-03-29T04:16:03.035Z,77.07
2018-03-29T04:17:03.105Z,77.36
2018-03-29T04:18:03.068Z,77.93
2018-03-29T04:19:03.084Z,77.17
2018-03-29T04:20:03.103Z,77.36
2018-03-29T04:21:03.132Z,77.93
2018-03-29T04:22:03.140Z,77.45
2018-03-29T04:23:03.156Z,77.98
2018-03-29T04:24:03.186Z,77.98
2018-03-29T04:25:03.188Z,78.12
2018-03-29T04:26:03.205Z,77.80
2018-03-29T04:27:03.221Z,77.89
2018-03-29T04:28:03.242Z,77.70
2018-03-29T04:29:03.257Z,77.89
2018-03-29T04:30:03.274Z,77.13
2018-03-29T04:31:03.294Z,77.80
2018-03-29T04:32:03.310Z,77.70
2018-03-29T04:33:03.384Z,77.32
2018-03-29T04:34:03.345Z,77.13
2018-03-29T04:35:03.369Z,77.51
2018-03-29T04:36:03.387Z,77.89
2018-03-29T04:37:03.395Z,77.70
2018-03-29T04:38:03.421Z,77.89
2018-03-29T04:39:03.444Z,77.98
2018-03-29T04:40:03.446Z,77.80
2018-03-29T04:41:03.513Z,77.80
2018-03-29T04:42:03.482Z,77.70
2018-03-29T04:43:03.498Z,77.03
2018-03-29T04:44:03.519Z,77.13
2018-03-29T04:45:03.542Z,77.70
2018-03-29T04:46:03.548Z,77.70
2018-03-29T04:47:03.576Z,78.37
2018-03-29T04:48:03.596Z,78.08
2018-03-29T04:49:03.602Z,77.70
2018-03-29T04:50:03.625Z,77.89
2018-03-29T04:51:03.645Z,77.80
2018-03-29T04:52:03.662Z,77.80
2018-03-29T04:53:03.749Z,77.61
2018-03-29T04:54:03.685Z,78.46
2018-03-29T04:55:03.702Z,78.61
2018-03-29T04:56:03.722Z,78.80
2018-03-29T04:57:03.737Z,78.61
2018-03-29T04:58:03.756Z,78.80
2018-03-29T04:59:03.821Z,78.80
2018-03-29T05:00:03.799Z,78.61
2018-03-29T05:01:03.812Z,78.61
2018-03-29T05:02:03.825Z,77.76
2018-03-29T05:03:03.839Z,78.42
2018-03-29T05:04:03.855Z,79.28
2018-03-29T05:05:03.940Z,78.52
2018-03-29T05:06:03.897Z,78.61
2018-03-29T05:07:03.910Z,78.61
2018-03-29T05:08:03.926Z,78.17
2018-03-29T05:09:03.946Z,77.89
2018-03-29T05:10:03.975Z,78.17
2018-03-29T05:11:03.996Z,78.37
2018-03-29T05:12:03.990Z,78.27
2018-03-29T05:13:04.009Z,77.98
2018-03-29T05:14:04.025Z,76.90
2018-03-29T05:15:04.044Z,77.28
2018-03-29T05:16:04.066Z,77.37
2018-03-29T05:17:04.089Z,77.28
2018-03-29T05:18:04.092Z,77.00
2018-03-29T05:19:04.111Z,77.85
2018-03-29T05:20:04.126Z,77.85
2018-03-29T05:21:04.146Z,77.76
2018-03-29T05:22:04.169Z,77.66
2018-03-29T05:23:04.179Z,77.66
2018-03-29T05:24:04.257Z,77.47
2018-03-29T05:25:04.208Z,78.14
2018-03-29T05:26:04.239Z,78.23
2018-03-29T05:27:04.251Z,78.61
2018-03-29T05:28:04.274Z,78.80
2018-03-29T05:29:04.332Z,78.99
2018-03-29T05:30:04.332Z,78.61
2018-03-29T05:31:04.316Z,78.99
2018-03-29T05:32:04.337Z,79.19
2018-03-29T05:33:04.349Z,79.19
2018-03-29T05:34:04.368Z,80.04
2018-03-29T05:35:04.435Z,80.23
2018-03-29T05:36:04.400Z,79.47
2018-03-29T05:37:04.417Z,78.80
2018-03-29T05:38:04.432Z,78.61
2018-03-29T05:39:04.450Z,77.89
2018-03-29T05:40:04.491Z,79.99
2018-03-29T05:41:04.590Z,77.70
2018-03-29T05:42:04.503Z,76.18
2018-03-29T05:43:04.564Z,75.89
2018-03-29T05:44:04.546Z,75.42
2018-03-29T05:45:04.564Z,74.75
2018-03-29T05:46:04.571Z,74.12
2018-03-29T05:47:04.587Z,73.36
2018-03-29T05:48:04.602Z,73.17
2018-03-29T05:49:04.623Z,72.69
2018-03-29T05:50:04.639Z,72.02
2018-03-29T05:51:04.656Z,73.45
2018-03-29T05:52:04.684Z,74.21
2018-03-29T05:53:04.742Z,74.88
2018-03-29T05:54:04.710Z,74.84
2018-03-29T05:55:04.725Z,74.65
2018-03-29T05:56:04.751Z,74.65
2018-03-29T05:57:04.762Z,74.56
2018-03-29T05:58:04.776Z,75.51
2018-03-29T05:59:04.795Z,73.70
2018-03-29T06:00:04.815Z,74.18
2018-03-29T06:01:04.830Z,74.84
2018-03-29T06:02:04.891Z,74.94
2018-03-29T06:03:04.888Z,74.46
2018-03-29T06:04:04.878Z,74.84
2018-03-29T06:05:04.944Z,74.18
2018-03-29T06:06:04.909Z,74.18
2018-03-29T06:07:04.945Z,74.08
2018-03-29T06:08:04.957Z,73.80
2018-03-29T06:09:04.965Z,74.08
2018-03-29T06:10:04.979Z,73.61
2018-03-29T06:11:05.114Z,73.61
2018-03-29T06:12:05.025Z,73.32
2018-03-29T06:13:05.030Z,72.46
2018-03-29T06:14:05.060Z,72.85
2018-03-29T06:15:05.085Z,73.51
2018-03-29T06:16:05.097Z,73.22
2018-03-29T06:17:05.149Z,72.56
2018-03-29T06:18:05.117Z,72.08
2018-03-29T06:19:05.135Z,72.27
2018-03-29T06:20:05.154Z,72.27
2018-03-29T06:21:05.191Z,72.65
2018-03-29T06:22:05.190Z,73.51
2018-03-29T06:23:05.204Z,75.70
2018-03-29T06:24:05.227Z,73.99
2018-03-29T06:25:05.239Z,73.13
2018-03-29T06:26:05.258Z,73.99
2018-03-29T06:27:05.277Z,75.23
2018-03-29T06:28:05.293Z,75.13
2018-03-29T06:29:05.309Z,74.27
2018-03-29T06:30:05.328Z,74.27
2018-03-29T06:31:05.342Z,74.27
2018-03-29T06:32:05.360Z,74.08
2018-03-29T06:33:05.465Z,73.89
2018-03-29T06:34:05.411Z,74.18
2018-03-29T06:35:05.411Z,73.99
2018-03-29T06:36:05.430Z,73.13
2018-03-29T06:37:05.448Z,73.51
2018-03-29T06:38:05.465Z,75.13
2018-03-29T06:39:05.491Z,74.27
2018-03-29T06:40:05.498Z,73.45
2018-03-29T06:41:05.568Z,74.21
2018-03-29T06:42:05.534Z,73.93
2018-03-29T06:43:05.552Z,73.83
2018-03-29T06:44:05.571Z,74.40
2018-03-29T06:45:05.585Z,74.65
2018-03-29T06:46:05.628Z,74.60
2018-03-29T06:47:05.680Z,74.31
2018-03-29T06:48:05.645Z,74.31
2018-03-29T06:49:05.654Z,74.98
2018-03-29T06:50:05.672Z,74.60
2018-03-29T06:51:05.691Z,74.88
2018-03-29T06:52:05.719Z,75.74
2018-03-29T06:53:05.734Z,74.40
2018-03-29T06:54:05.749Z,73.74
2018-03-29T06:55:05.756Z,73.93
2018-03-29T06:56:05.777Z,74.02
2018-03-29T06:57:05.803Z,73.93
2018-03-29T06:58:05.811Z,74.21
2018-03-29T06:59:05.869Z,73.36
2018-03-29T07:00:05.853Z,73.17
2018-03-29T07:01:05.916Z,73.83
2018-03-29T07:02:05.889Z,72.88
2018-03-29T07:03:05.906Z,73.36
2018-03-29T07:04:05.923Z,72.72
2018-03-29T07:05:05.984Z,72.06
2018-03-29T07:06:05.956Z,72.16
2018-03-29T07:07:05.968Z,72.82
2018-03-29T07:08:05.988Z,72.44
2018-03-29T07:09:06.033Z,72.92
2018-03-29T07:10:06.019Z,72.16
2018-03-29T07:11:06.052Z,71.96
2018-03-29T07:12:06.058Z,71.11
2018-03-29T07:13:06.082Z,71.39
2018-03-29T07:14:06.093Z,72.44
2018-03-29T07:15:06.119Z,71.87
2018-03-29T07:16:06.136Z,72.25
2018-03-29T07:17:06.143Z,73.39
2018-03-29T07:18:06.219Z,73.30
2018-03-29T07:19:06.181Z,72.92
2018-03-29T07:20:06.200Z,72.63
2018-03-29T07:21:06.215Z,73.21
2018-03-29T07:22:06.241Z,73.39
2018-03-29T07:23:06.258Z,72.72
2018-03-29T07:24:06.270Z,73.39
2018-03-29T07:25:06.287Z,73.01
2018-03-29T07:26:06.305Z,73.58
2018-03-29T07:27:06.323Z,73.68
2018-03-29T07:28:06.339Z,73.96
2018-03-29T07:29:06.414Z,74.16
2018-03-29T07:30:06.384Z,73.30
2018-03-29T07:31:06.392Z,73.30
2018-03-29T07:32:06.413Z,74.06
2018-03-29T07:33:06.437Z,73.96
2018-03-29T07:34:06.447Z,74.25
2018-03-29T07:35:06.514Z,73.21
2018-03-29T07:36:06.483Z,72.92
2018-03-29T07:37:06.528Z,72.92
2018-03-29T07:38:06.527Z,74.16
2018-03-29T07:39:06.536Z,73.39
2018-03-29T07:40:06.552Z,73.68
2018-03-29T07:41:06.625Z,73.58
2018-03-29T07:42:06.586Z,74.06
2018-03-29T07:43:06.622Z,74.10
2018-03-29T07:44:06.633Z,73.33
2018-03-29T07:45:06.639Z,73.05
2018-03-29T07:46:06.657Z,74.10
2018-03-29T07:47:06.745Z,74.10
2018-03-29T07:48:06.699Z,73.62
2018-03-29T07:49:06.711Z,73.62
2018-03-29T07:50:06.728Z,73.33
2018-03-29T07:51:06.756Z,73.05
2018-03-29T07:52:06.767Z,72.48
2018-03-29T07:53:06.783Z,72.76
2018-03-29T07:54:06.798Z,72.09
2018-03-29T07:55:06.819Z,71.84
2018-03-29T07:56:06.865Z,71.46
2018-03-29T07:57:06.853Z,71.46
2018-03-29T07:58:06.880Z,71.37
2018-03-29T07:59:06.908Z,71.27
2018-03-29T08:00:06.908Z,71.94
2018-03-29T08:01:06.937Z,71.46
2018-03-29T08:02:06.952Z,70.98
2018-03-29T08:03:06.966Z,70.22
2018-03-29T08:04:06.980Z,70.13
2018-03-29T08:05:06.999Z,70.98
2018-03-29T08:06:07.031Z,70.03
2018-03-29T08:07:07.037Z,69.97
2018-03-29T08:08:07.050Z,69.87
2018-03-29T08:09:07.118Z,70.16
2018-03-29T08:10:07.088Z,69.59
2018-03-29T08:11:07.161Z,67.97
2018-03-29T08:12:07.127Z,67.52
2018-03-29T08:13:07.142Z,67.33
2018-03-29T08:14:07.171Z,67.43
2018-03-29T08:15:07.260Z,67.52
2018-03-29T08:16:07.199Z,66.85
2018-03-29T08:17:07.266Z,66.31
2018-03-29T08:18:07.233Z,65.52
2018-03-29T08:19:07.254Z,65.71
2018-03-29T08:20:07.271Z,64.78
2018-03-29T08:21:07.296Z,64.98
2018-03-29T08:22:07.317Z,64.59
2018-03-29T08:23:07.377Z,63.67
2018-03-29T08:24:07.342Z,63.10
2018-03-29T08:25:07.368Z,62.43
2018-03-29T08:26:07.391Z,61.85
2018-03-29T08:27:07.396Z,63.35
2018-03-29T08:28:07.465Z,61.69
2018-03-29T08:29:07.485Z,59.23
2018-03-29T08:30:07.463Z,58.02
2018-03-29T08:31:07.475Z,55.82
2018-03-29T08:32:07.501Z,56.23
2018-03-29T08:33:07.560Z,54.22
2018-03-29T08:34:07.530Z,53.58
2018-03-29T08:35:07.610Z,51.32
2018-03-29T08:36:07.574Z,48.74
2018-03-29T08:37:07.590Z,49.33
2018-03-29T08:38:07.607Z,47.99
2018-03-29T08:39:07.624Z,49.57
2018-03-29T08:40:07.654Z,49.00
2018-03-29T08:41:07.666Z,49.45
2018-03-29T08:42:07.681Z,48.23
2018-03-29T08:43:07.711Z,47.77
2018-03-29T08:44:07.721Z,46.84
2018-03-29T08:45:07.741Z,46.07
2018-03-29T08:46:07.761Z,45.57
2018-03-29T08:47:07.798Z,44.61
2018-03-29T08:48:07.808Z,44.73
2018-03-29T08:49:07.821Z,44.61
2018-03-29T08:50:07.845Z,43.84
2018-03-29T08:51:08.065Z,43.48
2018-03-29T08:52:08.089Z,43.50
2018-03-29T08:53:07.962Z,41.87
2018-03-29T08:54:08.014Z,40.43
2018-03-29T08:55:07.950Z,39.56
2018-03-29T08:56:07.968Z,40.05
2018-03-29T08:57:07.988Z,40.55
2018-03-29T08:58:08.011Z,39.81
2018-03-29T08:59:08.029Z,38.56
2018-03-29T09:00:08.060Z,37.59
2018-03-29T09:01:08.075Z,37.30
2018-03-29T09:02:08.100Z,37.51
2018-03-29T09:03:08.118Z,37.59
2018-03-29T09:04:08.147Z,37.18
2018-03-29T09:05:08.154Z,38.91
2018-03-29T09:06:08.181Z,38.22
2018-03-29T09:07:08.207Z,39.29
2018-03-29T09:08:08.220Z,38.66
2018-03-29T09:09:08.242Z,36.95
2018-03-29T09:10:08.312Z,37.99
2018-03-29T09:11:08.295Z,40.47
2018-03-29T09:12:08.307Z,39.39
2018-03-29T09:13:08.372Z,40.93
2018-03-29T09:14:08.350Z,40.29
2018-03-29T09:15:08.375Z,42.10
2018-03-29T09:16:08.395Z,42.65
2018-03-29T09:17:08.415Z,42.19
2018-03-29T09:18:08.445Z,41.80
2018-03-29T09:19:08.470Z,42.65
2018-03-29T09:20:08.480Z,43.73
2018-03-29T09:21:08.510Z,42.94
2018-03-29T09:22:08.534Z,44.45
2018-03-29T09:23:08.548Z,45.48
2018-03-29T09:24:08.566Z,45.96
2018-03-29T09:26:08.639Z,47.56
2018-03-29T09:27:08.635Z,47.20
2018-03-29T09:28:08.703Z,47.58
2018-03-29T09:29:08.669Z,46.62
2018-03-29T09:30:08.687Z,45.48
2018-03-29T09:31:08.711Z,45.59
2018-03-29T09:32:08.745Z,44.26
2018-03-29T09:33:08.759Z,43.41
2018-03-29T09:34:08.773Z,43.68
2018-03-29T09:35:08.803Z,44.93
2018-03-29T09:36:08.820Z,44.62
2018-03-29T09:37:08.842Z,45.21
2018-03-29T09:38:08.864Z,45.31
2018-03-29T09:39:08.883Z,44.93
2018-03-29T09:40:08.953Z,45.02
2018-03-29T09:41:08.913Z,44.95
2018-03-29T09:42:08.932Z,45.04
2018-03-29T09:43:08.953Z,44.59
2018-03-29T09:44:08.988Z,44.95
2018-03-29T09:45:09.066Z,45.21
2018-03-29T09:46:09.017Z,45.96
2018-03-29T09:47:09.047Z,47.58
2018-03-29T09:48:09.058Z,47.30
2018-03-29T09:49:09.074Z,47.75
2018-03-29T09:50:09.108Z,47.58
2018-03-29T09:51:09.155Z,48.13
2018-03-29T09:52:09.189Z,48.33
2018-03-29T09:53:09.155Z,47.66
2018-03-29T09:54:09.176Z,48.54
2018-03-29T09:55:09.194Z,48.83
2018-03-29T09:56:09.215Z,48.16
2018-03-29T09:57:09.243Z,48.73
2018-03-29T09:58:09.307Z,48.90
2018-03-29T09:59:09.272Z,49.00
2018-03-29T10:00:09.298Z,48.80
2018-03-29T10:01:09.315Z,49.64
2018-03-29T10:02:09.333Z,50.31
2018-03-29T10:03:09.368Z,50.62
2018-03-29T10:04:09.448Z,49.64
2018-03-29T10:05:09.404Z,50.05
2018-03-29T10:06:09.413Z,50.02
2018-03-29T10:07:09.443Z,50.02
2018-03-29T10:08:09.459Z,50.60
2018-03-29T10:09:09.481Z,50.41
2018-03-29T10:10:09.492Z,50.79
2018-03-29T10:11:09.512Z,51.17
2018-03-29T10:12:09.547Z,52.51
2018-03-29T10:13:09.560Z,52.29
2018-03-29T10:14:09.569Z,52.32
2018-03-29T10:15:09.586Z,52.32
2018-03-29T10:16:09.607Z,52.61
2018-03-29T10:17:09.624Z,51.65
2018-03-29T10:18:09.655Z,51.56
2018-03-29T10:19:09.667Z,53.16
2018-03-29T10:20:09.684Z,53.53
2018-03-29T10:21:09.702Z,54.78
2018-03-29T10:22:09.783Z,54.68
2018-03-29T10:23:09.741Z,55.90
2018-03-29T10:24:09.812Z,56.38
2018-03-29T10:25:09.788Z,56.67
2018-03-29T10:26:09.799Z,56.95
2018-03-29T10:27:09.819Z,58.07
2018-03-29T10:28:09.888Z,58.00
2018-03-29T10:29:09.928Z,58.76
2018-03-29T10:30:09.899Z,58.00
2018-03-29T10:31:09.904Z,57.53
2018-03-29T10:32:09.912Z,56.95
2018-03-29T10:33:09.932Z,56.88
2018-03-29T10:34:10.004Z,56.60
2018-03-29T10:35:09.992Z,55.45
2018-03-29T10:36:09.984Z,55.00
2018-03-29T10:37:10.003Z,54.52
2018-03-29T10:38:10.022Z,54.61
2018-03-29T10:39:10.043Z,53.49
2018-03-29T10:40:10.065Z,53.40
2018-03-29T10:41:10.130Z,52.47
2018-03-29T10:42:10.098Z,51.22
2018-03-29T10:43:10.121Z,52.34
2018-03-29T10:44:10.139Z,52.09
2018-03-29T10:45:10.165Z,51.51
2018-03-29T10:46:10.177Z,49.98
2018-03-29T10:47:10.192Z,49.21
2018-03-29T10:48:10.270Z,49.50
2018-03-29T10:49:10.242Z,48.21
2018-03-29T10:50:10.252Z,46.03
2018-03-29T10:51:10.373Z,44.97
2018-03-29T10:52:10.302Z,44.59
2018-03-29T10:53:10.316Z,44.68
2018-03-29T10:54:10.355Z,43.00
2018-03-29T10:55:10.349Z,40.14
2018-03-29T10:56:10.383Z,40.25
2018-03-29T10:57:10.396Z,40.05
2018-03-29T10:58:10.408Z,40.43
2018-03-29T10:59:10.427Z,40.60
2018-03-29T11:00:10.449Z,41.46
2018-03-29T11:01:10.526Z,42.29
2018-03-29T11:02:10.489Z,42.84
2018-03-29T11:03:10.520Z,43.80
2018-03-29T11:04:10.582Z,42.84
2018-03-29T11:05:10.558Z,43.13
2018-03-29T11:06:10.578Z,42.71
2018-03-29T11:07:10.619Z,39.76
2018-03-29T11:08:10.609Z,40.67
2018-03-29T11:09:10.629Z,41.73
2018-03-29T11:10:10.709Z,40.48
2018-03-29T11:11:10.671Z,40.81
2018-03-29T11:12:10.691Z,40.31
2018-03-29T11:13:10.709Z,38.62
2018-03-29T11:14:10.740Z,37.60
2018-03-29T11:15:10.754Z,35.50
2018-03-29T11:16:10.831Z,34.96
2018-03-29T11:17:10.802Z,33.42
2018-03-29T11:18:10.820Z,34.17
2018-03-29T11:19:10.838Z,34.91
2018-03-29T11:20:10.918Z,35.83
2018-03-29T11:21:10.881Z,37.82
2018-03-29T11:22:10.901Z,39.79
2018-03-29T11:23:10.922Z,40.87
2018-03-29T11:24:10.952Z,39.93
2018-03-29T11:25:10.974Z,38.43
2018-03-29T11:26:11.016Z,37.62
2018-03-29T11:27:11.008Z,34.74
2018-03-29T11:28:11.081Z,35.16
2018-03-29T11:29:11.060Z,33.05
2018-03-29T11:30:11.072Z,32.62
2018-03-29T11:31:11.102Z,34.57
2018-03-29T11:32:11.114Z,36.18
2018-03-29T11:33:11.146Z,37.05
2018-03-29T11:34:11.217Z,38.28
2018-03-29T11:35:11.181Z,38.18
2018-03-29T11:36:11.204Z,38.74
2018-03-29T11:37:11.229Z,39.31
2018-03-29T11:38:11.246Z,39.39
2018-03-29T11:39:11.289Z,39.70
2018-03-29T11:40:11.343Z,39.31
2018-03-29T11:41:11.309Z,38.64
2018-03-29T11:42:11.340Z,38.01
2018-03-29T11:43:11.353Z,36.84
2018-03-29T11:44:11.382Z,38.83
2018-03-29T11:45:11.422Z,38.54
2018-03-29T11:46:11.465Z,39.87
2018-03-29T11:47:11.434Z,39.48
2018-03-29T11:48:11.464Z,39.48
2018-03-29T11:49:11.484Z,39.98
2018-03-29T11:50:11.499Z,38.87
2018-03-29T11:51:11.543Z,35.64
2018-03-29T11:52:11.592Z,35.45
2018-03-29T11:53:11.571Z,34.59
2018-03-29T11:54:11.580Z,35.53
2018-03-29T11:55:11.601Z,35.13
2018-03-29T11:56:11.627Z,35.97
2018-03-29T11:57:11.651Z,35.59
2018-03-29T11:58:11.669Z,34.94
2018-03-29T11:59:11.687Z,34.03
2018-03-29T12:00:11.709Z,32.30
2018-03-29T12:01:11.730Z,32.01
2018-03-29T12:02:11.761Z,31.35
2018-03-29T12:03:11.771Z,32.93
2018-03-29T12:04:11.843Z,34.52
2018-03-29T12:05:11.830Z,36.13
2018-03-29T12:06:11.841Z,37.28
2018-03-29T12:07:11.857Z,37.85
2018-03-29T12:08:11.877Z,36.46
2018-03-29T12:09:11.910Z,34.86
2018-03-29T12:10:12.012Z,35.20
2018-03-29T12:11:11.945Z,32.14
2018-03-29T12:12:11.962Z,31.69
2018-03-29T12:13:11.981Z,30.15
2018-03-29T12:14:12.014Z,28.52
2018-03-29T12:15:12.029Z,28.72
2018-03-29T12:16:12.050Z,30.55
2018-03-29T12:17:12.066Z,29.71
2018-03-29T12:18:12.101Z,29.00
2018-03-29T12:19:12.119Z,29.93
2018-03-29T12:20:12.140Z,31.72
2018-03-29T12:21:12.159Z,32.73
2018-03-29T12:22:12.242Z,34.82
2018-03-29T12:23:12.215Z,36.07
2018-03-29T12:24:12.239Z,36.16
2018-03-29T12:25:12.243Z,36.38
2018-03-29T12:26:12.264Z,35.49
2018-03-29T12:27:12.285Z,35.43
2018-03-29T12:28:12.313Z,35.51
2018-03-29T12:29:12.415Z,36.36
2018-03-29T12:30:12.356Z,36.74
2018-03-29T12:31:12.392Z,36.26
2018-03-29T12:32:12.399Z,36.26
2018-03-29T12:33:12.418Z,36.72
2018-03-29T12:34:12.440Z,37.66
2018-03-29T12:35:12.524Z,37.09
2018-03-29T12:36:12.490Z,38.05
2018-03-29T12:37:12.511Z,38.53
2018-03-29T12:38:12.525Z,38.53
2018-03-29T12:39:12.556Z,39.01
2018-03-29T12:40:12.577Z,39.39
2018-03-29T12:41:12.583Z,39.47
2018-03-29T12:42:12.614Z,39.87
2018-03-29T12:43:12.630Z,40.33
2018-03-29T12:44:12.660Z,41.67
2018-03-29T12:45:12.675Z,42.14
2018-03-29T12:46:12.698Z,42.24
2018-03-29T12:47:12.748Z,41.88
2018-03-29T12:48:12.732Z,40.02
2018-03-29T12:49:12.759Z,37.37
2018-03-29T12:50:12.768Z,35.58
2018-03-29T12:51:12.790Z,34.72
2018-03-29T12:52:12.864Z,35.93
2018-03-29T12:53:12.906Z,36.18
2018-03-29T12:54:12.851Z,37.70
2018-03-29T12:55:12.882Z,38.56